Time;durP1;ratioP1;P1;durP2;ratioP2;P2;SDS_P1;SDS_P2;PMS_P1;PMS_P2;Temp;Humidity;BMP_temperature;BMP_pressure;BME280_temperature;BME280_humidity;BME280_pressure;Samples;Min_cycle;Max_cycle;Signal;HPM_P1;HPM_P2
2024/03/16 00:04:50;;;;;;;21.30;4.95;;;11.70;30.30;;;;;;20652987;28;20438;-48
2024/03/16 00:14:50;;;;;;;23.85;5.50;;;11.70;36.60;;;;;;20656731;28;20478;-48
2024/03/16 00:24:51;;;;;;;31.75;6.65;;;11.60;68.10;;;;;;20653291;28;20179;-48
2024/03/16 00:34:51;;;;;;;23.67;5.23;;;11.50;94.90;;;;;;20654707;28;20212;-48
2024/03/16 00:44:52;;;;;;;29.20;5.88;;;11.20;99.90;;;;;;20656632;28;20448;-48
2024/03/16 00:54:53;;;;;;;37.72;9.07;;;11.20;99.90;;;;;;20652277;28;20464;-48
2024/03/16 01:04:54;;;;;;;22.25;5.25;;;11.10;99.90;;;;;;20651012;28;20041;-48
2024/03/16 01:14:54;;;;;;;16.10;3.30;;;11.10;99.90;;;;;;20654427;28;20038;-48
2024/03/16 01:24:55;;;;;;;8.30;2.27;;;10.80;99.90;;;;;;20658669;28;20048;-48
2024/03/16 01:34:56;;;;;;;15.63;2.90;;;10.60;90.60;;;;;;20656723;28;20049;-48
2024/03/16 01:45:06;;;;;;;6.87;1.87;;;10.60;52.60;;;;;;20658134;28;20488;-48
2024/03/16 01:55:07;;;;;;;7.15;2.08;;;10.40;49.70;;;;;;20647152;28;20607;-48
2024/03/16 02:05:08;;;;;;;5.22;1.70;;;10.20;54.50;;;;;;20647486;28;20042;-48
2024/03/16 02:15:09;;;;;;;6.80;2.20;;;9.90;79.30;;;;;;20646387;28;20046;-48
2024/03/16 02:25:10;;;;;;;10.63;2.60;;;9.70;99.10;;;;;;20646722;28;20057;-48
2024/03/16 02:35:12;;;;;;;9.93;2.30;;;9.60;99.90;;;;;;20646280;28;20113;-48
2024/03/16 02:45:13;;;;;;;10.85;2.90;;;9.50;99.90;;;;;;20643176;28;20038;-48
2024/03/16 02:55:13;;;;;;;9.23;1.57;;;9.50;99.90;;;;;;20645785;28;20050;-48
2024/03/16 03:05:19;;;;;;;7.90;1.07;;;9.40;99.90;;;;;;20643182;28;20050;-48
2024/03/16 03:15:20;;;;;;;7.53;1.30;;;9.20;99.90;;;;;;20643015;28;20469;-48
2024/03/16 03:25:21;;;;;;;2.80;0.70;;;9.10;99.90;;;;;;20642577;28;20124;-48
2024/03/16 03:35:22;;;;;;;5.50;0.80;;;9.10;99.90;;;;;;20646575;28;21005;-48
2024/03/16 03:45:37;;;;;;;5.13;0.97;;;9.00;99.90;;;;;;20640111;28;20468;-48
2024/03/16 03:55:38;;;;;;;4.63;0.95;;;9.00;99.90;;;;;;20647569;28;20537;-48
2024/03/16 04:05:39;;;;;;;5.63;1.40;;;8.90;99.90;;;;;;20657935;28;20453;-48
2024/03/16 04:15:39;;;;;;;7.75;1.83;;;8.90;99.90;;;;;;20655785;28;20049;-48
2024/03/16 04:25:40;;;;;;;6.20;1.83;;;9.00;99.90;;;;;;20653044;28;20983;-48
2024/03/16 04:35:41;;;;;;;6.82;1.50;;;8.80;99.90;;;;;;20654001;28;20519;-48
2024/03/16 04:45:46;;;;;;;12.25;1.60;;;8.70;99.90;;;;;;20652744;28;20042;-48
2024/03/16 04:55:49;;;;;;;10.85;2.00;;;8.80;99.90;;;;;;20648121;28;20129;-48
2024/03/16 05:05:51;;;;;;;9.68;1.20;;;8.70;99.90;;;;;;20650461;28;20057;-48
2024/03/16 05:15:52;;;;;;;5.68;0.90;;;8.60;99.90;;;;;;20636206;28;20034;-48
2024/03/16 05:25:53;;;;;;;6.47;1.20;;;8.40;98.40;;;;;;20650930;28;20477;-48
2024/03/16 05:35:53;;;;;;;4.95;1.20;;;8.20;99.90;;;;;;20651937;28;20100;-48
2024/03/16 05:45:54;;;;;;;4.43;1.13;;;8.10;99.90;;;;;;20647807;28;20038;-49
2024/03/16 05:55:55;;;;;;;8.73;1.73;;;8.10;99.90;;;;;;20653401;28;20042;-50
2024/03/16 06:05:55;;;;;;;6.97;1.37;;;8.20;99.90;;;;;;20646811;28;20045;-48
2024/03/16 06:15:56;;;;;;;7.67;1.47;;;8.20;99.90;;;;;;20509629;28;20491;-48
2024/03/16 06:26:03;;;;;;;4.32;1.10;;;8.20;82.40;;;;;;20589433;28;20801;-48
2024/03/16 06:36:04;;;;;;;6.97;1.65;;;8.20;60.10;;;;;;20588372;28;20201;-48
2024/03/16 06:46:07;;;;;;;6.05;1.00;;;8.10;58.20;;;;;;20582872;28;20038;-48
2024/03/16 06:56:09;;;;;;;6.25;1.38;;;8.10;56.90;;;;;;20578828;28;20612;-48
2024/03/16 07:06:10;;;;;;;9.10;1.17;;;8.20;50.20;;;;;;20576830;28;20130;-48
2024/03/16 07:16:13;;;;;;;12.03;1.37;;;8.20;50.00;;;;;;20588219;28;20027;-48
2024/03/16 07:26:14;;;;;;;9.77;1.98;;;8.40;24.30;;;;;;20587222;28;20478;-48
2024/03/16 07:36:15;;;;;;;8.00;1.42;;;8.50;22.20;;;;;;20561998;28;20038;-48
2024/03/16 07:46:16;;;;;;;2.57;0.67;;;8.40;30.70;;;;;;20598139;28;20039;-48
2024/03/16 07:56:18;;;;;;;12.05;2.10;;;8.50;36.30;;;;;;20589598;28;20457;-48
2024/03/16 08:06:19;;;;;;;5.40;0.80;;;8.70;30.40;;;;;;20596875;28;20509;-48
2024/03/16 08:16:19;;;;;;;5.50;1.10;;;8.90;20.00;;;;;;20588299;28;20402;-48
2024/03/16 08:26:20;;;;;;;4.43;0.90;;;8.90;21.90;;;;;;20604734;28;20477;-48
2024/03/16 08:36:21;;;;;;;5.40;1.05;;;8.90;14.10;;;;;;20599862;28;20042;-48
2024/03/16 08:46:21;;;;;;;4.65;0.80;;;8.80;15.90;;;;;;20564426;28;20034;-48
2024/03/16 08:56:24;;;;;;;9.15;1.30;;;8.90;12.80;;;;;;20598557;28;20137;-48
2024/03/16 09:06:24;;;;;;;4.32;0.85;;;9.00;10.80;;;;;;20590947;28;20467;-49
2024/03/16 09:16:25;;;;;;;9.27;1.10;;;8.90;1.00;;;;;;20602463;28;20466;-48
2024/03/16 09:26:26;;;;;;;3.88;0.80;;;9.10;1.00;;;;;;20584735;28;20584;-48
2024/03/16 09:36:28;;;;;;;6.13;0.63;;;9.30;1.00;;;;;;20599369;28;20034;-48
2024/03/16 09:46:31;;;;;;;4.90;0.80;;;9.10;1.00;;;;;;20559004;28;20498;-48
2024/03/16 09:56:32;;;;;;;3.80;0.82;;;9.20;1.00;;;;;;20604985;28;20566;-48
2024/03/16 10:06:32;;;;;;;5.03;0.97;;;9.40;1.00;;;;;;20562265;28;20100;-48
2024/03/16 10:16:33;;;;;;;6.75;1.05;;;9.30;1.00;;;;;;20594076;28;20474;-48
2024/03/16 10:26:35;;;;;;;5.07;1.10;;;9.60;1.00;;;;;;20554688;28;20035;-48
2024/03/16 10:36:37;;;;;;;6.15;1.10;;;9.60;1.00;;;;;;20586772;28;20058;-48
2024/03/16 10:46:42;;;;;;;3.80;0.77;;;9.90;1.00;;;;;;20600439;28;20038;-48
2024/03/16 10:56:42;;;;;;;7.65;1.00;;;9.90;1.00;;;;;;20589178;28;20909;-48
2024/03/16 11:06:43;;;;;;;3.80;0.70;;;9.70;1.00;;;;;;20596126;28;20889;-48
2024/03/16 11:16:48;;;;;;;4.93;0.90;;;10.00;1.00;;;;;;20603658;28;20520;-48
2024/03/16 11:26:49;;;;;;;4.75;0.70;;;10.20;1.00;;;;;;20611255;28;20537;-48
2024/03/16 11:36:54;;;;;;;4.13;1.35;;;10.30;1.00;;;;;;20603186;28;20041;-48
2024/03/16 11:46:55;;;;;;;7.18;1.50;;;10.30;1.00;;;;;;20605195;28;20038;-48
2024/03/16 11:56:56;;;;;;;7.40;1.20;;;10.30;1.00;;;;;;20628111;28;20038;-48
2024/03/16 12:06:59;;;;;;;7.03;1.27;;;10.40;1.00;;;;;;20624817;28;20466;-48
2024/03/16 12:17:00;;;;;;;5.10;1.05;;;10.50;1.00;;;;;;20622787;28;20298;-48
2024/03/16 12:27:05;;;;;;;6.93;1.00;;;11.20;1.00;;;;;;20624383;28;20129;-48
2024/03/16 12:37:07;;;;;;;7.53;0.90;;;11.30;1.00;;;;;;20624832;28;20076;-48
2024/03/16 12:47:08;;;;;;;9.07;1.00;;;11.90;1.00;;;;;;20624033;28;20038;-48
2024/03/16 12:57:09;;;;;;;6.43;0.60;;;12.50;1.00;;;;;;20622453;28;20550;-49
2024/03/16 13:07:09;;;;;;;4.43;0.63;;;13.10;1.00;;;;;;20612592;28;20064;-48
2024/03/16 13:17:10;;;;;;;3.50;0.52;;;13.10;1.00;;;;;;20597892;28;20462;-48
2024/03/16 13:27:11;;;;;;;2.92;0.50;;;14.20;1.00;;;;;;20606167;28;20053;-51
2024/03/16 13:37:12;;;;;;;4.00;0.50;;;12.60;1.00;;;;;;20571087;28;20109;-48
2024/03/16 13:47:18;;;;;;;4.07;0.80;;;12.10;1.00;;;;;;20585095;28;20038;-48
2024/03/16 13:57:18;;;;;;;5.45;0.80;;;11.80;1.00;;;;;;20590719;28;20234;-48
2024/03/16 14:07:19;;;;;;;4.50;0.60;;;12.10;1.00;;;;;;20587392;28;20069;-48
2024/03/16 14:17:20;;;;;;;4.88;1.08;;;11.70;1.00;;;;;;20598208;28;20093;-48
2024/03/16 14:27:20;;;;;;;5.38;0.80;;;11.40;1.00;;;;;;20575821;28;20711;-48
2024/03/16 14:37:21;;;;;;;4.77;0.63;;;11.40;1.00;;;;;;20595391;28;20042;-48
2024/03/16 14:47:22;;;;;;;3.53;0.82;;;11.60;1.00;;;;;;20614554;28;20564;-48
2024/03/16 14:57:23;;;;;;;6.28;0.88;;;11.50;1.00;;;;;;20615509;28;20045;-48
2024/03/16 15:07:24;;;;;;;5.75;0.77;;;12.00;1.00;;;;;;20612420;28;20078;-48
2024/03/16 15:17:25;;;;;;;4.30;0.70;;;12.00;1.00;;;;;;20616955;28;20050;-48
2024/03/16 15:27:30;;;;;;;6.65;1.08;;;11.50;1.00;;;;;;20604488;28;20099;-48
2024/03/16 15:37:31;;;;;;;7.53;1.08;;;11.20;1.00;;;;;;20592208;28;20050;-48
2024/03/16 15:47:32;;;;;;;5.18;1.02;;;11.10;1.00;;;;;;20610078;28;20038;-49
2024/03/16 15:57:35;;;;;;;6.72;1.10;;;10.70;1.00;;;;;;20602824;28;20486;-48
2024/03/16 16:07:35;;;;;;;4.80;0.70;;;10.60;1.00;;;;;;20600210;28;20783;-48
2024/03/16 16:17:36;;;;;;;4.80;0.80;;;11.10;1.00;;;;;;20603647;28;20933;-49
2024/03/16 16:27:37;;;;;;;4.63;0.90;;;11.10;1.00;;;;;;20607324;28;20572;-48
2024/03/16 16:37:37;;;;;;;12.37;1.77;;;10.70;1.00;;;;;;20608617;28;20391;-48
2024/03/16 16:47:38;;;;;;;6.40;1.02;;;10.40;1.00;;;;;;20603876;28;20509;-48
2024/03/16 16:57:38;;;;;;;7.88;1.75;;;10.20;1.00;;;;;;20603290;28;20042;-48
2024/03/16 17:07:39;;;;;;;8.03;1.10;;;9.90;1.00;;;;;;20599677;28;20050;-48
2024/03/16 17:17:40;;;;;;;9.00;1.17;;;9.60;1.00;;;;;;20605054;28;20645;-48
2024/03/16 17:27:40;;;;;;;7.65;1.10;;;9.30;1.00;;;;;;20591917;28;20053;-48
2024/03/16 17:37:41;;;;;;;7.72;1.30;;;9.10;1.00;;;;;;20596731;28;20045;-48
2024/03/16 17:47:42;;;;;;;6.28;1.20;;;8.90;1.00;;;;;;20594325;28;20048;-48
2024/03/16 17:57:43;;;;;;;8.18;1.77;;;8.60;1.00;;;;;;20591920;28;20097;-48
2024/03/16 18:07:44;;;;;;;5.50;2.10;;;8.40;1.00;;;;;;20601748;28;20046;-48
2024/03/16 18:17:44;;;;;;;9.47;2.43;;;8.20;1.00;;;;;;20604220;28;20053;-48
2024/03/16 18:27:45;;;;;;;9.10;2.67;;;7.90;1.00;;;;;;20599160;28;20557;-48
2024/03/16 18:37:47;;;;;;;10.37;3.20;;;7.70;1.00;;;;;;20596345;28;20042;-48
2024/03/16 18:47:48;;;;;;;9.20;4.43;;;7.60;1.00;;;;;;20597918;28;20074;-48
2024/03/16 18:57:48;;;;;;;14.68;4.45;;;7.50;1.00;;;;;;20577157;28;20045;-48
2024/03/16 19:07:50;;;;;;;9.82;4.45;;;7.30;1.00;;;;;;20589972;28;20042;-48
2024/03/16 19:17:50;;;;;;;12.05;3.83;;;7.10;1.00;;;;;;20600840;28;20043;-48
2024/03/16 19:27:51;;;;;;;11.13;4.23;;;7.00;1.00;;;;;;20602859;28;20066;-48
2024/03/16 19:37:51;;;;;;;13.57;5.22;;;6.90;1.00;;;;;;20613699;28;20293;-48
2024/03/16 19:47:52;;;;;;;13.38;5.82;;;6.80;1.00;;;;;;20608229;28;20038;-48
2024/03/16 19:57:54;;;;;;;9.68;5.15;;;6.70;1.00;;;;;;20607424;28;20070;-48
2024/03/16 20:07:56;;;;;;;14.80;6.30;;;6.60;1.00;;;;;;20602482;28;20114;-48
2024/03/16 20:17:57;;;;;;;12.23;5.70;;;6.60;1.70;;;;;;20604153;28;20034;-48
2024/03/16 20:27:58;;;;;;;12.82;6.78;;;6.60;6.40;;;;;;20605383;28;21356;-48
2024/03/16 20:37:59;;;;;;;15.38;8.40;;;6.50;10.10;;;;;;20611814;28;20034;-48
2024/03/16 20:47:59;;;;;;;20.30;10.48;;;6.50;12.70;;;;;;20609396;28;20050;-48
2024/03/16 20:58:00;;;;;;;24.20;12.17;;;6.40;14.40;;;;;;20614275;28;20038;-50
2024/03/16 21:08:01;;;;;;;20.63;12.90;;;6.40;17.00;;;;;;20613252;28;20466;-49
2024/03/16 21:18:02;;;;;;;21.35;12.23;;;6.30;18.40;;;;;;20600937;28;20557;-48
2024/03/16 21:28:03;;;;;;;17.10;10.83;;;6.20;22.00;;;;;;20601633;28;20121;-48
2024/03/16 21:38:04;;;;;;;16.27;11.02;;;6.10;23.70;;;;;;20602510;28;20446;-49
2024/03/16 21:48:05;;;;;;;21.43;11.33;;;6.10;26.50;;;;;;20602798;28;20086;-48
2024/03/16 21:58:06;;;;;;;19.23;10.05;;;6.10;29.70;;;;;;20599072;28;20441;-48
2024/03/16 22:08:07;;;;;;;19.08;10.30;;;6.10;32.30;;;;;;20597447;28;20516;-48
2024/03/16 22:18:08;;;;;;;14.52;8.95;;;6.00;34.60;;;;;;20562842;28;20234;-48
2024/03/16 22:28:09;;;;;;;19.45;11.43;;;6.00;37.00;;;;;;20579166;28;20046;-48
2024/03/16 22:38:09;;;;;;;15.38;9.65;;;6.00;38.90;;;;;;20552608;28;20034;-48
2024/03/16 22:48:11;;;;;;;14.80;8.23;;;6.10;45.30;;;;;;20568750;28;20134;-48
2024/03/16 22:58:11;;;;;;;15.07;7.88;;;6.10;40.50;;;;;;20580308;28;20496;-48
2024/03/16 23:08:12;;;;;;;17.77;7.33;;;6.30;40.30;;;;;;20600960;28;20046;-48
2024/03/16 23:18:12;;;;;;;13.33;6.17;;;6.40;34.60;;;;;;20606578;28;20473;-48
2024/03/16 23:28:13;;;;;;;11.50;5.03;;;6.40;27.00;;;;;;20542312;28;20469;-48
2024/03/16 23:38:14;;;;;;;9.20;3.63;;;6.40;23.40;;;;;;20498112;28;20081;-48
2024/03/16 23:48:15;;;;;;;9.93;4.07;;;6.40;19.40;;;;;;20539465;28;20051;-48
2024/03/16 23:58:15;;;;;;;10.53;3.93;;;6.50;15.40;;;;;;20516068;28;20477;-48
